createdAt,value
2019-04-30T00:00:40.089Z,99.90
2019-04-30T00:03:11.483Z,99.90
2019-04-30T00:05:41.571Z,99.90
2019-04-30T00:08:10.811Z,99.90
2019-04-30T00:10:41.364Z,99.90
2019-04-30T00:13:14.857Z,99.90
2019-04-30T00:15:41.252Z,99.90
2019-04-30T00:18:10.274Z,99.90
2019-04-30T00:20:39.244Z,99.90
2019-04-30T00:23:08.175Z,99.90
2019-04-30T00:25:37.211Z,99.90
2019-04-30T00:28:08.867Z,99.90
2019-04-30T00:30:39.369Z,99.90
2019-04-30T00:33:08.666Z,99.90
2019-04-30T00:35:37.630Z,99.90
2019-04-30T00:38:06.622Z,99.90
2019-04-30T00:40:35.610Z,99.90
2019-04-30T00:43:08.877Z,99.90
2019-04-30T00:45:35.644Z,99.90
2019-04-30T00:48:05.981Z,99.90
2019-04-30T00:50:37.219Z,99.90
2019-04-30T00:53:12.348Z,99.90
2019-04-30T00:55:38.145Z,99.90
2019-04-30T00:58:09.130Z,99.90
2019-04-30T01:00:40.694Z,99.90
2019-04-30T01:03:11.339Z,99.90
2019-04-30T01:05:44.512Z,99.90
2019-04-30T01:08:11.108Z,99.90
2019-04-30T01:10:40.134Z,99.90
2019-04-30T01:13:11.943Z,99.90
2019-04-30T01:15:44.016Z,99.90
2019-04-30T01:18:10.360Z,99.90
2019-04-30T01:20:40.717Z,99.90
2019-04-30T01:23:12.280Z,99.90
2019-04-30T01:25:43.124Z,99.90
2019-04-30T01:28:16.254Z,99.90
2019-04-30T01:30:43.384Z,99.90
2019-04-30T01:33:13.961Z,99.90
2019-04-30T01:35:42.935Z,99.90
2019-04-30T01:38:12.816Z,99.90
2019-04-30T01:40:47.537Z,99.90
2019-04-30T01:43:13.919Z,99.90
2019-04-30T01:45:42.870Z,99.90
2019-04-30T01:48:12.794Z,99.90
2019-04-30T01:50:42.252Z,99.90
2019-04-30T01:53:13.141Z,99.90
2019-04-30T01:55:49.556Z,99.90
2019-04-30T01:58:33.451Z,99.90
2019-04-30T02:01:04.202Z,99.90
2019-04-30T02:03:33.164Z,99.90
2019-04-30T02:06:02.105Z,99.90
2019-04-30T02:08:31.068Z,99.90
2019-04-30T02:10:59.987Z,99.90
2019-04-30T02:13:29.523Z,99.90
2019-04-30T02:15:59.759Z,99.90
2019-04-30T02:18:29.646Z,99.90
2019-04-30T02:20:59.546Z,99.90
2019-04-30T02:23:29.669Z,99.90
2019-04-30T02:25:59.398Z,99.90
2019-04-30T02:28:29.123Z,99.90
2019-04-30T02:31:00.325Z,99.90
2019-04-30T02:33:30.833Z,99.90
2019-04-30T02:36:04.351Z,99.90
2019-04-30T02:38:34.964Z,99.90
2019-04-30T02:41:04.151Z,99.90
2019-04-30T02:43:34.875Z,99.90
2019-04-30T02:46:05.457Z,99.90
2019-04-30T02:48:39.399Z,99.90
2019-04-30T02:51:10.198Z,99.90
2019-04-30T02:54:03.425Z,99.90
2019-04-30T02:56:32.824Z,99.90
2019-04-30T02:59:03.768Z,99.90
2019-04-30T03:01:32.560Z,99.90
2019-04-30T03:04:03.161Z,99.90
2019-04-30T03:06:33.869Z,99.90
2019-04-30T03:09:03.931Z,99.90
2019-04-30T03:11:33.015Z,99.90
2019-04-30T03:14:01.981Z,99.90
2019-04-30T03:16:35.308Z,99.90
2019-04-30T03:19:09.820Z,99.90
2019-04-30T03:21:52.729Z,99.90
2019-04-30T03:24:21.751Z,99.90
2019-04-30T03:26:50.757Z,99.90
2019-04-30T03:29:23.442Z,99.90
2019-04-30T03:31:52.320Z,99.90
2019-04-30T03:34:26.021Z,99.90
2019-04-30T03:36:51.802Z,99.90
2019-04-30T03:39:20.740Z,99.90
2019-04-30T03:41:50.256Z,99.90
2019-04-30T03:44:25.496Z,99.90
2019-04-30T03:46:50.683Z,99.90
2019-04-30T03:49:20.428Z,99.90
2019-04-30T03:51:50.017Z,99.90
2019-04-30T03:54:19.523Z,99.90
2019-04-30T03:56:50.358Z,99.90
2019-04-30T03:59:20.063Z,99.90
2019-04-30T04:01:56.213Z,99.90
2019-04-30T04:04:26.840Z,99.90
2019-04-30T04:07:15.721Z,99.90
2019-04-30T04:09:59.786Z,99.90
2019-04-30T04:12:30.592Z,99.90
2019-04-30T04:15:03.242Z,99.90
2019-04-30T04:17:31.569Z,99.90
2019-04-30T04:20:00.832Z,99.90
2019-04-30T04:22:30.602Z,99.90
2019-04-30T04:25:00.356Z,99.90
2019-04-30T04:27:30.130Z,99.90
2019-04-30T04:30:01.163Z,99.90
2019-04-30T04:32:31.069Z,99.90
2019-04-30T04:35:00.518Z,99.90
2019-04-30T04:37:30.431Z,99.90
2019-04-30T04:39:59.830Z,99.90
2019-04-30T04:42:32.466Z,99.90
2019-04-30T04:44:59.841Z,99.90
2019-04-30T04:47:30.868Z,99.90
2019-04-30T04:50:00.703Z,99.90
2019-04-30T04:52:31.394Z,99.90
2019-04-30T04:55:00.914Z,99.90
2019-04-30T04:57:30.623Z,99.90
2019-04-30T05:00:06.829Z,99.90
2019-04-30T05:02:34.950Z,99.90
2019-04-30T05:05:09.483Z,99.90
2019-04-30T05:07:53.769Z,99.90
2019-04-30T05:10:23.045Z,99.90
2019-04-30T05:12:52.142Z,99.90
2019-04-30T05:15:21.362Z,99.90
2019-04-30T05:17:50.331Z,99.90
2019-04-30T05:20:19.602Z,99.90
2019-04-30T05:22:48.951Z,99.90
2019-04-30T05:25:18.658Z,99.90
2019-04-30T05:27:48.824Z,99.90
2019-04-30T05:30:19.871Z,99.90
2019-04-30T05:32:50.706Z,99.90
2019-04-30T05:35:19.983Z,99.90
2019-04-30T05:37:49.533Z,99.90
2019-04-30T05:40:19.013Z,99.90
2019-04-30T05:42:49.613Z,99.90
2019-04-30T05:45:19.341Z,99.90
2019-04-30T05:47:50.238Z,99.90
2019-04-30T05:50:19.964Z,99.90
2019-04-30T05:52:49.438Z,99.90
2019-04-30T05:55:19.754Z,99.90
2019-04-30T05:57:55.851Z,99.90
2019-04-30T06:00:20.148Z,99.90
2019-04-30T06:02:49.718Z,99.90
2019-04-30T06:05:19.052Z,99.90
2019-04-30T06:07:51.667Z,99.90
2019-04-30T06:10:20.443Z,99.90
2019-04-30T06:13:06.158Z,99.90
2019-04-30T06:15:39.749Z,99.90
2019-04-30T06:18:13.552Z,99.90
2019-04-30T06:20:39.458Z,99.90
2019-04-30T06:23:09.600Z,99.90
2019-04-30T06:25:55.727Z,99.90
2019-04-30T06:28:10.091Z,99.90
2019-04-30T06:30:39.777Z,99.90
2019-04-30T06:33:11.662Z,99.90
2019-04-30T06:35:40.150Z,99.90
2019-04-30T06:38:09.222Z,99.90
2019-04-30T06:40:39.118Z,99.90
2019-04-30T06:43:09.122Z,99.90
2019-04-30T06:45:38.955Z,99.90
2019-04-30T06:48:08.995Z,99.90
2019-04-30T06:50:39.322Z,99.90
2019-04-30T06:53:09.300Z,99.90
2019-04-30T06:55:39.247Z,99.90
2019-04-30T06:58:14.675Z,99.90
2019-04-30T07:00:40.398Z,99.90
2019-04-30T07:03:21.942Z,99.90
2019-04-30T07:05:50.908Z,99.90
2019-04-30T07:08:39.553Z,99.90
2019-04-30T07:11:22.244Z,99.90
2019-04-30T07:13:52.378Z,98.80
2019-04-30T07:16:21.609Z,99.40
2019-04-30T07:18:50.619Z,99.90
2019-04-30T07:21:19.983Z,99.90
2019-04-30T07:23:49.100Z,99.90
2019-04-30T07:26:19.688Z,99.70
2019-04-30T07:28:54.646Z,99.90
2019-04-30T07:31:19.522Z,99.90
2019-04-30T07:33:53.425Z,99.90
2019-04-30T07:36:19.671Z,99.90
2019-04-30T07:38:54.529Z,99.90
2019-04-30T07:41:19.490Z,99.90
2019-04-30T07:43:49.470Z,99.90
2019-04-30T07:46:19.977Z,99.90
2019-04-30T07:48:50.141Z,99.90
2019-04-30T07:51:21.171Z,99.90
2019-04-30T07:53:50.111Z,99.90
2019-04-30T07:56:25.833Z,99.20
2019-04-30T07:58:50.527Z,99.30
2019-04-30T08:01:19.796Z,98.70
2019-04-30T08:03:58.861Z,98.20
2019-04-30T08:06:30.654Z,98.40
2019-04-30T08:09:00.820Z,98.20
2019-04-30T08:11:29.419Z,97.60
2019-04-30T08:13:59.142Z,97.30
2019-04-30T08:16:28.826Z,97.40
2019-04-30T08:18:59.181Z,96.90
2019-04-30T08:21:28.844Z,95.00
2019-04-30T08:23:59.310Z,95.80
2019-04-30T08:26:28.852Z,96.30
2019-04-30T08:28:59.769Z,96.20
2019-04-30T08:31:29.256Z,96.80
2019-04-30T08:33:59.111Z,95.70
2019-04-30T08:36:29.867Z,96.30
2019-04-30T08:38:59.731Z,96.10
2019-04-30T08:41:29.375Z,95.10
2019-04-30T08:43:59.761Z,94.40
2019-04-30T08:46:29.039Z,94.40
2019-04-30T08:48:58.751Z,94.40
2019-04-30T08:51:30.296Z,94.80
2019-04-30T08:53:58.828Z,94.50
2019-04-30T08:56:29.544Z,94.00
2019-04-30T08:58:59.414Z,94.80
2019-04-30T09:01:30.092Z,94.30
2019-04-30T09:03:59.766Z,94.40
2019-04-30T09:06:29.872Z,94.70
2019-04-30T09:08:59.721Z,93.20
2019-04-30T09:11:35.569Z,93.50
2019-04-30T09:13:59.325Z,93.40
2019-04-30T09:16:29.492Z,92.50
2019-04-30T09:18:59.513Z,93.10
2019-04-30T09:21:30.038Z,92.40
2019-04-30T09:23:59.503Z,91.20
2019-04-30T09:26:29.151Z,92.10
2019-04-30T09:28:59.301Z,92.40
2019-04-30T09:31:29.666Z,92.70
2019-04-30T09:34:00.765Z,92.00
2019-04-30T09:36:29.520Z,91.70
2019-04-30T09:39:01.324Z,92.30
2019-04-30T09:41:29.203Z,91.80
2019-04-30T09:43:59.771Z,91.60
2019-04-30T09:46:29.955Z,90.30
2019-04-30T09:48:59.755Z,91.10
2019-04-30T09:51:30.563Z,90.70
2019-04-30T09:54:03.468Z,88.60
2019-04-30T09:56:31.287Z,87.40
2019-04-30T09:59:00.235Z,87.10
2019-04-30T10:01:31.864Z,84.70
2019-04-30T10:04:00.459Z,83.30
2019-04-30T10:06:39.027Z,79.80
2019-04-30T10:09:02.077Z,79.20
2019-04-30T10:11:38.334Z,75.10
2019-04-30T10:14:07.286Z,71.90
2019-04-30T10:16:46.721Z,69.00
2019-04-30T10:19:15.802Z,64.40
2019-04-30T10:21:44.853Z,65.70
2019-04-30T10:24:15.741Z,63.30
2019-04-30T10:26:44.759Z,58.30
2019-04-30T10:29:14.657Z,58.50
2019-04-30T10:31:43.643Z,60.10
2019-04-30T10:34:13.114Z,64.80
2019-04-30T10:36:42.163Z,65.10
2019-04-30T10:39:11.879Z,64.50
2019-04-30T10:41:40.946Z,66.50
2019-04-30T10:44:10.046Z,68.20
2019-04-30T10:46:39.639Z,67.40
2019-04-30T10:49:09.106Z,67.60
2019-04-30T10:51:38.900Z,61.40
2019-04-30T10:54:08.834Z,54.10
2019-04-30T10:56:38.479Z,52.50
2019-04-30T10:59:07.599Z,51.80
2019-04-30T11:01:36.841Z,51.30
2019-04-30T11:04:07.067Z,50.40
2019-04-30T11:06:36.150Z,51.10
2019-04-30T11:09:08.229Z,49.20
2019-04-30T11:11:39.308Z,47.70
2019-04-30T11:14:08.168Z,45.90
2019-04-30T11:16:37.120Z,45.50
2019-04-30T11:19:06.433Z,43.10
2019-04-30T11:21:35.890Z,42.80
2019-04-30T11:24:05.329Z,46.10
2019-04-30T11:26:34.927Z,43.20
2019-04-30T11:29:04.465Z,43.60
2019-04-30T11:31:44.395Z,44.80
2019-04-30T11:34:13.721Z,40.90
2019-04-30T11:36:42.674Z,37.30
2019-04-30T11:39:13.754Z,35.40
2019-04-30T11:41:42.718Z,35.30
2019-04-30T11:44:12.640Z,34.10
2019-04-30T11:46:59.696Z,33.60
2019-04-30T11:49:28.802Z,33.90
2019-04-30T11:51:57.770Z,29.60
2019-04-30T11:54:26.822Z,29.40
2019-04-30T11:56:55.852Z,28.40
2019-04-30T11:59:24.813Z,28.00
2019-04-30T12:01:55.719Z,27.70
2019-04-30T12:04:24.801Z,28.10
2019-04-30T12:06:55.420Z,27.80
2019-04-30T12:09:41.290Z,28.90
2019-04-30T12:12:10.301Z,27.00
2019-04-30T12:14:39.598Z,27.20
2019-04-30T12:17:08.607Z,26.20
2019-04-30T12:19:38.823Z,26.70
2019-04-30T12:22:07.862Z,26.10
2019-04-30T12:24:38.688Z,25.30
2019-04-30T12:27:07.602Z,25.50
2019-04-30T12:29:36.582Z,26.10
2019-04-30T12:32:05.688Z,25.60
2019-04-30T12:34:34.702Z,26.30
2019-04-30T12:37:04.549Z,26.00
2019-04-30T12:39:33.564Z,26.20
2019-04-30T12:42:02.676Z,25.70
2019-04-30T12:44:31.614Z,25.50
2019-04-30T12:47:00.606Z,25.40
2019-04-30T12:49:31.278Z,26.60
2019-04-30T12:52:16.922Z,26.50
2019-04-30T12:54:50.478Z,26.40
2019-04-30T12:57:24.072Z,25.80
2019-04-30T12:59:53.069Z,26.90
2019-04-30T13:02:22.097Z,25.60
2019-04-30T13:04:51.099Z,25.40
2019-04-30T13:07:21.199Z,24.60
2019-04-30T13:09:51.283Z,24.40
2019-04-30T13:12:21.147Z,24.80
2019-04-30T13:14:54.431Z,24.50
2019-04-30T13:17:21.109Z,24.30
2019-04-30T13:19:50.194Z,24.40
2019-04-30T13:22:19.227Z,25.30
2019-04-30T13:24:49.831Z,24.80
2019-04-30T13:27:19.589Z,24.10
2019-04-30T13:30:06.220Z,24.80
2019-04-30T13:32:36.886Z,25.20
2019-04-30T13:35:09.305Z,24.50
2019-04-30T13:37:40.146Z,24.60
2019-04-30T13:40:25.890Z,24.50
2019-04-30T13:42:56.214Z,25.20
2019-04-30T13:45:25.342Z,24.00
2019-04-30T13:47:54.413Z,24.70
2019-04-30T13:50:23.511Z,24.90
2019-04-30T13:52:52.467Z,24.30
2019-04-30T13:55:21.529Z,25.40
2019-04-30T13:57:50.570Z,26.20
2019-04-30T14:00:21.332Z,26.20
2019-04-30T14:03:00.923Z,25.70
2019-04-30T14:05:29.951Z,25.60
2019-04-30T14:08:01.668Z,25.30
2019-04-30T14:10:32.670Z,26.00
2019-04-30T14:13:03.340Z,25.90
2019-04-30T14:15:32.555Z,26.20
2019-04-30T14:18:01.638Z,25.40
2019-04-30T14:20:30.743Z,26.10
2019-04-30T14:22:59.765Z,26.00
2019-04-30T14:25:29.141Z,25.10
2019-04-30T14:27:59.316Z,25.60
2019-04-30T14:30:29.242Z,25.40
2019-04-30T14:32:59.333Z,25.30
2019-04-30T14:35:28.729Z,25.10
2019-04-30T14:37:59.582Z,25.80
2019-04-30T14:40:30.257Z,25.70
2019-04-30T14:43:13.926Z,27.10
2019-04-30T14:45:45.254Z,26.00
2019-04-30T14:48:23.681Z,26.30
2019-04-30T14:50:52.710Z,27.10
2019-04-30T14:53:30.532Z,28.00
2019-04-30T14:56:19.741Z,27.60
2019-04-30T14:58:56.179Z,27.30
2019-04-30T15:01:35.513Z,27.80
2019-04-30T15:04:04.540Z,28.30
2019-04-30T15:06:33.581Z,28.60
2019-04-30T15:09:03.570Z,28.30
2019-04-30T15:11:32.561Z,28.50
2019-04-30T15:14:02.235Z,28.80
2019-04-30T15:16:31.407Z,29.00
2019-04-30T15:19:00.903Z,29.20
2019-04-30T15:21:29.964Z,30.00
2019-04-30T15:24:01.654Z,30.30
2019-04-30T15:26:30.921Z,31.30
2019-04-30T15:29:00.248Z,30.70
2019-04-30T15:31:29.760Z,32.90
2019-04-30T15:34:03.068Z,33.70
2019-04-30T15:36:31.750Z,35.40
2019-04-30T15:39:02.401Z,36.60
2019-04-30T15:41:31.806Z,38.40
2019-04-30T15:44:00.815Z,39.80
2019-04-30T15:46:29.852Z,41.10
2019-04-30T15:48:58.930Z,42.10
2019-04-30T15:51:27.879Z,44.00
2019-04-30T15:53:56.893Z,44.00
2019-04-30T15:56:35.241Z,45.30
2019-04-30T15:59:14.502Z,46.50
2019-04-30T16:02:03.224Z,46.50
2019-04-30T16:04:52.210Z,47.50
2019-04-30T16:07:21.273Z,49.10
2019-04-30T16:10:08.878Z,50.00
2019-04-30T16:12:39.729Z,51.20
2019-04-30T16:15:10.034Z,51.20
2019-04-30T16:17:40.796Z,51.80
2019-04-30T16:20:09.912Z,52.60
2019-04-30T16:22:39.168Z,53.70
2019-04-30T16:25:08.668Z,55.10
2019-04-30T16:27:37.719Z,55.70
2019-04-30T16:30:09.429Z,56.40
2019-04-30T16:32:38.346Z,57.20
2019-04-30T16:35:08.969Z,57.90
2019-04-30T16:37:38.771Z,57.40
2019-04-30T16:40:10.420Z,57.70
2019-04-30T16:42:39.507Z,58.00
2019-04-30T16:45:09.298Z,59.00
2019-04-30T16:47:38.427Z,59.10
2019-04-30T16:50:08.970Z,60.20
2019-04-30T16:52:39.323Z,60.10
2019-04-30T16:55:08.612Z,60.90
2019-04-30T16:57:39.658Z,61.10
2019-04-30T17:00:10.414Z,61.70
2019-04-30T17:02:41.017Z,62.80
2019-04-30T17:05:23.694Z,62.60
2019-04-30T17:07:56.766Z,63.30
2019-04-30T17:10:30.347Z,64.20
2019-04-30T17:13:12.823Z,64.60
2019-04-30T17:15:46.153Z,64.50
2019-04-30T17:18:15.102Z,65.60
2019-04-30T17:20:44.057Z,66.90
2019-04-30T17:23:13.091Z,67.40
2019-04-30T17:25:42.212Z,68.20
2019-04-30T17:28:11.167Z,68.10
2019-04-30T17:30:40.192Z,68.60
2019-04-30T17:33:09.576Z,69.20
2019-04-30T17:35:38.851Z,70.20
2019-04-30T17:38:07.908Z,70.10
2019-04-30T17:40:38.861Z,70.30
2019-04-30T17:43:07.587Z,71.10
2019-04-30T17:45:39.200Z,71.40
2019-04-30T17:48:08.352Z,71.90
2019-04-30T17:50:39.506Z,73.00
2019-04-30T17:53:09.109Z,73.40
2019-04-30T17:55:39.186Z,73.50
2019-04-30T17:58:09.721Z,74.20
2019-04-30T18:00:40.803Z,74.70
2019-04-30T18:03:10.975Z,75.30
2019-04-30T18:05:40.103Z,75.20
2019-04-30T18:08:09.192Z,75.70
2019-04-30T18:10:38.654Z,77.10
2019-04-30T18:13:07.697Z,77.00
2019-04-30T18:15:36.705Z,77.50
2019-04-30T18:18:13.168Z,77.30
2019-04-30T18:20:46.736Z,77.30
2019-04-30T18:23:17.338Z,78.50
2019-04-30T18:25:51.134Z,79.10
2019-04-30T18:28:20.124Z,79.90
2019-04-30T18:30:49.207Z,80.00
2019-04-30T18:33:18.207Z,81.20
2019-04-30T18:35:48.673Z,81.70
2019-04-30T18:38:17.905Z,82.00
2019-04-30T18:40:46.898Z,83.10
2019-04-30T18:43:15.907Z,82.20
2019-04-30T18:45:44.933Z,83.30
2019-04-30T18:48:13.998Z,84.70
2019-04-30T18:50:42.948Z,84.70
2019-04-30T18:53:19.611Z,85.00
2019-04-30T18:55:50.497Z,86.80
2019-04-30T18:58:20.129Z,87.50
2019-04-30T19:00:49.573Z,89.20
2019-04-30T19:03:21.297Z,90.30
2019-04-30T19:05:51.087Z,90.90
2019-04-30T19:08:21.904Z,91.20
2019-04-30T19:10:55.429Z,91.60
2019-04-30T19:13:34.804Z,91.70
2019-04-30T19:16:25.290Z,92.10
2019-04-30T19:19:09.391Z,92.30
2019-04-30T19:21:40.380Z,92.10
2019-04-30T19:24:09.656Z,92.30
2019-04-30T19:26:38.925Z,92.50
2019-04-30T19:29:08.030Z,92.60
2019-04-30T19:31:37.057Z,92.80
2019-04-30T19:34:06.116Z,92.90
2019-04-30T19:36:49.228Z,93.30
2019-04-30T19:42:14.636Z,93.60
2019-04-30T19:57:51.071Z,94.80
2019-04-30T20:00:24.329Z,94.90
2019-04-30T20:02:53.924Z,95.10
2019-04-30T20:05:29.033Z,95.20
2019-04-30T20:08:02.363Z,95.60
2019-04-30T20:10:33.925Z,95.40
2019-04-30T20:13:04.525Z,95.40
2019-04-30T20:15:33.505Z,95.20
2019-04-30T20:18:09.102Z,95.50
2019-04-30T20:20:40.562Z,95.20
2019-04-30T20:23:09.570Z,94.80
2019-04-30T20:25:38.700Z,94.70
2019-04-30T20:28:12.030Z,95.30
2019-04-30T20:30:53.996Z,94.50
2019-04-30T20:33:22.995Z,95.40
2019-04-30T20:35:55.622Z,95.50
2019-04-30T20:41:24.565Z,95.60
2019-04-30T20:43:56.987Z,95.50
2019-04-30T20:46:34.620Z,95.50
2019-04-30T20:48:59.678Z,95.90
2019-04-30T20:51:29.300Z,96.40
2019-04-30T20:53:59.998Z,96.50
2019-04-30T20:56:39.809Z,96.50
2019-04-30T21:01:58.685Z,96.90
2019-04-30T21:04:29.471Z,97.30
2019-04-30T21:06:59.522Z,97.60
2019-04-30T21:09:28.692Z,97.70
2019-04-30T21:11:58.775Z,97.90
2019-04-30T21:14:28.149Z,98.10
2019-04-30T21:16:57.173Z,98.00
2019-04-30T21:19:26.276Z,98.40
2019-04-30T21:21:55.236Z,98.10
2019-04-30T21:24:25.770Z,98.10
2019-04-30T21:26:56.244Z,98.10
2019-04-30T21:29:26.672Z,98.50
2019-04-30T21:32:13.625Z,98.70
2019-04-30T21:34:47.499Z,98.90
2019-04-30T21:37:23.931Z,99.00
2019-04-30T21:39:58.555Z,99.30
2019-04-30T21:42:34.670Z,99.50
2019-04-30T21:45:36.318Z,99.60
2019-04-30T21:48:05.656Z,99.60
2019-04-30T21:57:00.996Z,99.90
2019-04-30T22:02:29.143Z,99.90
2019-04-30T22:04:58.186Z,99.90
2019-04-30T22:07:31.499Z,99.90
2019-04-30T22:10:01.858Z,99.90
2019-04-30T22:12:38.881Z,99.90
2019-04-30T22:15:09.199Z,99.90
2019-04-30T22:17:40.759Z,99.90
2019-04-30T22:20:11.410Z,99.90
2019-04-30T22:22:44.284Z,99.90
2019-04-30T22:25:14.082Z,99.90
2019-04-30T22:27:43.521Z,99.90
2019-04-30T22:30:13.919Z,99.90
2019-04-30T22:32:42.938Z,99.90
2019-04-30T22:35:39.924Z,99.90
2019-04-30T22:38:10.563Z,99.90
2019-04-30T22:40:48.823Z,99.90
2019-04-30T22:52:53.550Z,99.90
2019-04-30T22:55:24.154Z,99.90
2019-04-30T22:57:57.148Z,99.90
2019-04-30T23:00:30.742Z,99.90
2019-04-30T23:06:17.236Z,99.90
2019-04-30T23:08:50.442Z,99.90
2019-04-30T23:11:24.651Z,99.90
2019-04-30T23:13:53.846Z,99.90
2019-04-30T23:16:22.963Z,99.90
2019-04-30T23:18:51.933Z,99.90
2019-04-30T23:24:36.983Z,99.90
2019-04-30T23:30:17.819Z,99.90
2019-04-30T23:32:47.979Z,99.90
2019-04-30T23:35:26.043Z,99.90
2019-04-30T23:37:55.276Z,99.90
2019-04-30T23:40:50.316Z,99.90
